メインページ
METAR-TAF:

METAR-TAF

空港 :

バマコ・セヌー国際空港

バマコ, マリ共和国

緯度: 12-32N, 経度: 007-57W, 海抜: 380m

現時点の気象観測

当レポートは23分前の06:00(UTC)に作成
北東の風 4kt
気温 17°C
湿度 48%
気圧 1015 hPa
視程: 8000m

METAR: GABS 150600Z 04004KT 8000 NSC 17/06 Q1015 NOSIG

時間: 06:23 (06:23 UTC)

予報

当レポートは1時間23分前の05:00(UTC)に作成
予報は15日の 06時(UTC)から 16日の 12時(UTC)まで有効
北東の風 10kt
視程10km以上
1,500メートル以下は雲なし、積乱雲なし

TAF: GABS 150500Z 1506/1612 05010KT CAVOK

4,000以上の空港の気象観測と天気予報(METAR報とTAF報)

利用可能な観測所は地図上に黄色い丸と赤い丸で示す。

丸の上にカーソルを重ねると観測所名を参照できる。

次にクリックすると気象観測と天気予報を参照できる。

マップの切り替え:黒色「×」印の緑ボタンをクリックして拡大、「-」印の緑ボタンをクリックして縮小、緑色の三角印をクリックして隣りの地図に切り替え


METAR-TAF: